Sommer S — WDG3830 — position and weather

sailwx.info

Track history (hours):
 
Tides and Currents Weather Stations Pressure Air Temp Water Temp Dewpoint Dewpoint Depression Visibility Wind Speed Wind Dir Waves Ship Positions

Sommer S

Owner: Shaver Transportation Company, Portland, OR. More information available from US FCC via Universal Licensing System and Coast Guard Vessel Documentation Center.

Last reported at 2015-Jun-27 17:27 UTC. Time now 2015-Jul-02 08:11 UTC.
Position N 45°38' W 122°43'.

Length 25 m.

Type: Tug. MMSI: 367530080.

Date/timePositionNaut miles runAvg speedWind from/ knotsBaromVisibWave heightAir tempDewpointWater temp
2015-Jun-27 17:27N 45°38' W 122°43'16 6.9
2015-Jun-27 15:09N 45°54' W 122°48'6 9.3
2015-Jun-27 14:31N 45°59' W 122°51'8 6.0
2015-Jun-27 13:15N 46°06' W 122°56'1 0.5
2015-Jun-27 12:10N 46°06' W 122°57'3 3.9
2015-Jun-27 11:29N 46°05' W 122°54'1612.5
2015-Jun-27 10:10N 45°49' W 122°48'10 2.8
2015-Jun-27 06:33N 45°39' W 122°45'1 1.1
2015-Jun-27 05:30N 45°39' W 122°46'2 1.1
2015-Jun-27 03:33N 45°38' W 122°43'0 0.0
2015-Jun-27 02:25N 45°38' W 122°43'0 0.0
2015-Jun-27 01:32N 45°38' W 122°43'0 0.0
2015-Jun-27 00:33N 45°38' W 122°43'0 0.0
2015-Jun-26 23:33N 45°38' W 122°43'0 0.0
2015-Jun-26 22:33N 45°38' W 122°43'0 0.0
2015-Jun-26 21:33N 45°38' W 122°43'2 2.1
2015-Jun-26 20:33N 45°39' W 122°46'3 3.3
2015-Jun-26 19:33N 45°36' W 122°46'0 0.0
2015-Jun-26 18:33N 45°36' W 122°46'0 0.0
2015-Jun-26 17:33N 45°36' W 122°46'6 6.5
2015-Jun-26 16:34N 45°42' W 122°46'10 9.9
2015-Jun-26 15:33N 45°52' W 122°47'9 9.2
2015-Jun-26 14:33N 46°01' W 122°52'6 6.1
2015-Jun-26 13:34N 46°06' W 122°56'1 0.7
2015-Jun-26 12:33N 46°06' W 122°57'0 0.0
2015-Jun-26 11:33N 46°06' W 122°57'0 0.0
2015-Jun-26 10:34N 46°06' W 122°57'0 0.0
2015-Jun-26 09:33N 46°06' W 122°57'0 0.0
2015-Jun-26 08:33N 46°06' W 122°57'4 3.8
2015-Jun-26 07:33N 46°04' W 122°53'10 9.7
2015-Jun-26 06:33N 45°54' W 122°49'1010.2
2015-Jun-26 05:33N 45°44' W 122°46'9 9.3
2015-Jun-26 04:33N 45°35' W 122°46'5 4.7
2015-Jun-26 03:34N 45°32' W 122°41'7 6.8
2015-Jun-26 02:33N 45°37' W 122°47'3 3.1
2015-Jun-26 01:34N 45°38' W 122°43'0 0.1
2015-Jun-26 00:33N 45°38' W 122°43'1 0.8
2015-Jun-25 23:34N 45°39' W 122°44'1 0.9
2015-Jun-25 22:34N 45°38' W 122°43'2 1.7
2015-Jun-25 21:33N 45°39' W 122°45'1 0.6
2015-Jun-25 20:33N 45°39' W 122°45'0 0.0
2015-Jun-25 19:33N 45°39' W 122°45'0 0.0
2015-Jun-25 18:34N 45°39' W 122°45'4 4.2
2015-Jun-25 17:34N 45°43' W 122°46'9 9.4
2015-Jun-25 16:34N 45°53' W 122°48'7 6.6
2015-Jun-25 15:33N 45°59' W 122°50'0 0.1
2015-Jun-25 14:33N 45°59' W 122°50'1 0.7
2015-Jun-25 13:33N 45°60' W 122°51'1 0.3
2015-Jun-25 11:33N 45°59' W 122°50'6 5.9
2015-Jun-25 10:34N 45°53' W 122°48'1211.5
2015-Jun-25 09:34N 45°42' W 122°46'4 3.5
2015-Jun-25 08:34N 45°39' W 122°45'3 3.5
2015-Jun-25 07:33N 45°35' W 122°46'2 2.2
2015-Jun-25 06:33N 45°34' W 122°43'0 0.2
2015-Jun-25 05:33N 45°34' W 122°44'0 0.0
2015-Jun-25 04:33N 45°34' W 122°44'0 0.4
2015-Jun-25 03:34N 45°34' W 122°44'0 0.0
2015-Jun-25 02:34N 45°34' W 122°44'6 6.2
2015-Jun-25 01:33N 45°40' W 122°46'10 9.8
2015-Jun-25 00:34N 45°49' W 122°48'9 9.1
2015-Jun-24 23:34N 45°58' W 122°50'8 8.4
2015-Jun-24 22:34N 46°05' W 122°56'0 0.0
2015-Jun-24 21:33N 46°05' W 122°56'0 0.0
2015-Jun-24 20:33N 46°05' W 122°56'0 0.0
2015-Jun-24 19:33N 46°05' W 122°56'0 0.0
2015-Jun-24 18:33N 46°05' W 122°56'0 0.0
2015-Jun-24 17:33N 46°05' W 122°56'0 0.0
2015-Jun-24 16:33N 46°05' W 122°56'0 0.0
2015-Jun-24 15:34N 46°05' W 122°56'0 0.0
2015-Jun-24 14:33N 46°05' W 122°56'1 0.6
2015-Jun-24 13:34N 46°06' W 122°56'1 0.6
2015-Jun-24 12:33N 46°05' W 122°56'0 0.0
2015-Jun-24 11:34N 46°05' W 122°56'0 0.0
2015-Jun-24 10:34N 46°05' W 122°56'0 0.0
2015-Jun-24 09:33N 46°05' W 122°56'0 0.0
2015-Jun-24 08:33N 46°05' W 122°56'0 0.0
2015-Jun-24 07:33N 46°05' W 122°56'0 0.0
2015-Jun-24 06:33N 46°05' W 122°56'0 0.0
2015-Jun-24 05:33N 46°05' W 122°56'0 0.0
2015-Jun-24 04:34N 46°05' W 122°56'0 0.0
2015-Jun-24 03:34N 46°05' W 122°56'0 0.0
2015-Jun-24 02:33N 46°05' W 122°56'2 2.3
2015-Jun-24 01:33N 46°04' W 122°53'2 2.5
2015-Jun-24 00:34N 46°02' W 122°53'0 0.1
2015-Jun-23 23:34N 46°02' W 122°53'0 0.0
2015-Jun-23 22:33N 46°02' W 122°53'0 0.0
2015-Jun-23 21:33N 46°02' W 122°53'0 0.0
2015-Jun-23 20:33N 46°02' W 122°53'1 0.9
2015-Jun-23 19:33N 46°02' W 122°53'0 1.0
2015-Jun-23 19:06N 46°02' W 122°53'29 1.2
2015-Jun-22 19:34N 45°34' W 122°44'0 0.0
2015-Jun-22 18:34N 45°34' W 122°44'0 0.0
2015-Jun-22 17:34N 45°34' W 122°44'0 0.0
2015-Jun-22 16:34N 45°34' W 122°44'0 0.2
2015-Jun-22 15:34N 45°34' W 122°44'0 0.2
2015-Jun-22 14:34N 45°34' W 122°44'3 2.9
2015-Jun-22 13:34N 45°32' W 122°41'4 4.3
2015-Jun-22 12:34N 45°35' W 122°45'4 4.0
2015-Jun-22 11:34N 45°39' W 122°45'1 0.5
2015-Jun-22 10:34N 45°39' W 122°45'0 0.0
2015-Jun-22 09:33N 45°39' W 122°45'0 0.0
2015-Jun-22 08:33N 45°39' W 122°45'0 0.0
2015-Jun-22 07:34N 45°39' W 122°45'0 0.0
2015-Jun-22 06:33N 45°39' W 122°45'0 0.0
2015-Jun-22 05:33N 45°39' W 122°45'0 0.0
2015-Jun-22 04:34N 45°39' W 122°45'0 0.2
2015-Jun-22 03:34N 45°38' W 122°45'3 2.5
2015-Jun-22 02:33N 45°41' W 122°46'8 8.3
2015-Jun-22 01:33N 45°49' W 122°48'8 7.9
2015-Jun-22 00:33N 45°57' W 122°48'8 7.6
2015-Jun-21 23:33N 46°04' W 122°53'3 2.6
2015-Jun-21 22:34N 46°05' W 122°56'0 0.3
2015-Jun-21 21:34N 46°06' W 122°56'1 1.2
2015-Jun-21 20:34N 46°06' W 122°58'2 1.8
2015-Jun-21 19:34N 46°05' W 122°55'0 0.0
2015-Jun-21 18:33N 46°05' W 122°55'0 0.0
2015-Jun-21 17:33N 46°05' W 122°55'2 2.1
2015-Jun-21 16:33N 46°04' W 122°53'1110.9
2015-Jun-21 15:34N 45°54' W 122°48'1010.3
2015-Jun-21 14:34N 45°43' W 122°46'6 6.1
2015-Jun-21 13:33N 45°38' W 122°42'1 1.3
2015-Jun-21 12:34N 45°38' W 122°44'1 1.1
2015-Jun-21 11:33N 45°38' W 122°42'2 1.8
2015-Jun-21 10:33N 45°39' W 122°45'0 0.0
2015-Jun-21 09:33N 45°39' W 122°45'0 0.0
2015-Jun-21 08:34N 45°39' W 122°45'0 0.0
2015-Jun-21 07:33N 45°39' W 122°45'1 1.4
2015-Jun-21 06:33N 45°38' W 122°47'1 1.5
2015-Jun-21 05:34N 45°39' W 122°45'0 0.0
2015-Jun-21 04:34N 45°39' W 122°45'1 1.0
2015-Jun-21 03:33N 45°39' W 122°45'9 9.4
2015-Jun-21 02:33N 45°48' W 122°47'1010.3
2015-Jun-21 01:33N 45°58' W 122°49'8 8.1
2015-Jun-21 00:33N 46°05' W 122°55'7 6.9
2015-Jun-20 23:34N 45°59' W 122°50'2 1.5
2015-Jun-20 22:33N 46°00' W 122°51'6 5.8
2015-Jun-20 21:33N 46°05' W 122°55'2 2.4
2015-Jun-20 20:33N 46°07' W 122°58'1 1.5
2015-Jun-20 19:33N 46°06' W 122°56'0 0.0
2015-Jun-20 18:34N 46°06' W 122°56'0 0.0
2015-Jun-20 17:34N 46°06' W 122°56'0 0.0
2015-Jun-20 16:34N 46°06' W 122°56'0 0.0
2015-Jun-20 15:34N 46°06' W 122°56'0 0.0
2015-Jun-20 14:33N 46°06' W 122°56'0 0.0
2015-Jun-20 13:33N 46°06' W 122°56'0 0.0
2015-Jun-20 12:33N 46°06' W 122°56'0 0.0
2015-Jun-20 11:33N 46°06' W 122°56'0 0.0
2015-Jun-20 10:33N 46°06' W 122°56'0 0.0
2015-Jun-20 09:33N 46°06' W 122°56'0 0.0
2015-Jun-20 08:34N 46°06' W 122°56'0 0.0
2015-Jun-20 07:33N 46°06' W 122°56'0 0.3
2015-Jun-20 06:34N 46°06' W 122°57'0 0.3
2015-Jun-20 05:33N 46°06' W 122°56'0 0.0
2015-Jun-20 04:33N 46°06' W 122°56'0 0.0
2015-Jun-20 03:33N 46°06' W 122°56'0 0.0
2015-Jun-20 02:34N 46°06' W 122°56'0 0.0
2015-Jun-20 01:33N 46°06' W 122°56'0 0.0
2015-Jun-20 00:33N 46°06' W 122°56'1 0.6
2015-Jun-19 23:33N 46°06' W 122°57'0 0.3
2015-Jun-19 22:33N 46°06' W 122°58'0 0.1
2015-Jun-19 21:34N 46°07' W 122°58'0 0.0
2015-Jun-19 20:33N 46°06' W 122°58'2 1.6
2015-Jun-19 19:34N 46°05' W 122°56'0 0.0
2015-Jun-19 18:33N 46°05' W 122°56'0 0.0
2015-Jun-19 17:34N 46°05' W 122°56'0 0.0
2015-Jun-19 16:33N 46°05' W 122°56'0 0.2
2015-Jun-19 15:34N 46°05' W 122°56'1 0.8
2015-Jun-19 14:34N 46°06' W 122°56'0 0.2
2015-Jun-19 13:34N 46°06' W 122°56'1 1.0
2015-Jun-19 12:33N 46°06' W 122°58'0 0.0
2015-Jun-19 11:34N 46°06' W 122°58'0 0.0
2015-Jun-19 10:34N 46°06' W 122°58'0 0.0
2015-Jun-19 09:33N 46°06' W 122°58'1 0.7
2015-Jun-19 08:34N 46°06' W 122°57'1 0.8
2015-Jun-19 07:33N 46°05' W 122°56'0 0.0
2015-Jun-19 06:33N 46°05' W 122°56'0 0.0
2015-Jun-19 05:33N 46°05' W 122°56'0 0.0
2015-Jun-19 04:34N 46°05' W 122°56'0 0.0
2015-Jun-19 03:34N 46°05' W 122°56'7 7.4
2015-Jun-19 02:33N 45°59' W 122°50'0 0.3
2015-Jun-19 01:33N 45°59' W 122°50'0 0.3
2015-Jun-19 00:34N 45°59' W 122°50'0 0.0
2015-Jun-18 23:33N 45°59' W 122°50'0 0.0
2015-Jun-18 22:33N 45°59' W 122°50'0 0.0
2015-Jun-18 21:33N 45°59' W 122°50'0 0.0
2015-Jun-18 20:34N 45°59' W 122°50'0 0.0
2015-Jun-18 19:33N 45°59' W 122°50'0 0.0
2015-Jun-18 18:33N 45°59' W 122°50'0 0.1
2015-Jun-18 17:33N 45°59' W 122°50'0 0.0
2015-Jun-18 16:33N 45°59' W 122°50'0 0.0
2015-Jun-18 15:33N 45°59' W 122°50'3 2.6
2015-Jun-18 14:33N 46°01' W 122°52'5 4.8
2015-Jun-18 13:33N 46°05' W 122°56'1 0.5
2015-Jun-18 12:34N 46°06' W 122°56'1 0.9
2015-Jun-18 11:33N 46°05' W 122°55'0 0.1
2015-Jun-18 10:33N 46°05' W 122°55'0 0.0
2015-Jun-18 09:34N 46°05' W 122°55'0 0.0
2015-Jun-18 08:33N 46°05' W 122°55'0 0.0
2015-Jun-18 07:33N 46°05' W 122°55'0 0.0
2015-Jun-18 06:34N 46°05' W 122°55'0 0.0
2015-Jun-18 05:34N 46°05' W 122°55'0 0.0
2015-Jun-18 04:33N 46°05' W 122°55'0 0.0
2015-Jun-18 03:33N 46°05' W 122°55'0 0.0
2015-Jun-18 02:33N 46°05' W 122°55'0 0.0
2015-Jun-18 01:33N 46°05' W 122°55'1 1.0
2015-Jun-18 00:33N 46°06' W 122°56'0 0.0
2015-Jun-17 23:33N 46°06' W 122°56'0 0.2
2015-Jun-17 22:33N 46°06' W 122°56'0 0.1
2015-Jun-17 21:33N 46°06' W 122°56'0 0.2
2015-Jun-17 20:33N 46°06' W 122°56'1 0.7
2015-Jun-17 19:33N 46°05' W 122°56'0 0.0
2015-Jun-17 18:34N 46°05' W 122°56'0 0.0
2015-Jun-17 17:34N 46°05' W 122°56'  
Track history (hours):
 
Tides and Currents Weather Stations Pressure Air Temp Water Temp Dewpoint Dewpoint Depression Visibility Wind Speed Wind Dir Waves Ship Positions

Sommer S

Owner: Shaver Transportation Company, Portland, OR. More information available from US FCC via Universal Licensing System and Coast Guard Vessel Documentation Center.

Last reported at 2015-Jun-27 17:27 UTC. Time now 2015-Jul-02 08:11 UTC.
Position N 45°38' W 122°43'.

Length 25 m.

Type: Tug. MMSI: 367530080.

Date/timePositionNaut miles runAvg speedWind from/ knotsBaromVisibWave heightAir tempDewpointWater temp
2015-Jun-27 17:27N 45°38' W 122°43'16 6.9
2015-Jun-27 15:09N 45°54' W 122°48'6 9.3
2015-Jun-27 14:31N 45°59' W 122°51'8 6.0
2015-Jun-27 13:15N 46°06' W 122°56'1 0.5
2015-Jun-27 12:10N 46°06' W 122°57'3 3.9
2015-Jun-27 11:29N 46°05' W 122°54'1612.5
2015-Jun-27 10:10N 45°49' W 122°48'10 2.8
2015-Jun-27 06:33N 45°39' W 122°45'1 1.1
2015-Jun-27 05:30N 45°39' W 122°46'2 1.1
2015-Jun-27 03:33N 45°38' W 122°43'0 0.0
2015-Jun-27 02:25N 45°38' W 122°43'0 0.0
2015-Jun-27 01:32N 45°38' W 122°43'0 0.0
2015-Jun-27 00:33N 45°38' W 122°43'0 0.0
2015-Jun-26 23:33N 45°38' W 122°43'0 0.0
2015-Jun-26 22:33N 45°38' W 122°43'0 0.0
2015-Jun-26 21:33N 45°38' W 122°43'2 2.1
2015-Jun-26 20:33N 45°39' W 122°46'3 3.3
2015-Jun-26 19:33N 45°36' W 122°46'0 0.0
2015-Jun-26 18:33N 45°36' W 122°46'0 0.0
2015-Jun-26 17:33N 45°36' W 122°46'6 6.5
2015-Jun-26 16:34N 45°42' W 122°46'10 9.9
2015-Jun-26 15:33N 45°52' W 122°47'9 9.2
2015-Jun-26 14:33N 46°01' W 122°52'6 6.1
2015-Jun-26 13:34N 46°06' W 122°56'1 0.7
2015-Jun-26 12:33N 46°06' W 122°57'0 0.0
2015-Jun-26 11:33N 46°06' W 122°57'0 0.0
2015-Jun-26 10:34N 46°06' W 122°57'0 0.0
2015-Jun-26 09:33N 46°06' W 122°57'0 0.0
2015-Jun-26 08:33N 46°06' W 122°57'4 3.8
2015-Jun-26 07:33N 46°04' W 122°53'10 9.7
2015-Jun-26 06:33N 45°54' W 122°49'1010.2
2015-Jun-26 05:33N 45°44' W 122°46'9 9.3
2015-Jun-26 04:33N 45°35' W 122°46'5 4.7
2015-Jun-26 03:34N 45°32' W 122°41'7 6.8
2015-Jun-26 02:33N 45°37' W 122°47'3 3.1
2015-Jun-26 01:34N 45°38' W 122°43'0 0.1
2015-Jun-26 00:33N 45°38' W 122°43'1 0.8
2015-Jun-25 23:34N 45°39' W 122°44'1 0.9
2015-Jun-25 22:34N 45°38' W 122°43'2 1.7
2015-Jun-25 21:33N 45°39' W 122°45'1 0.6
2015-Jun-25 20:33N 45°39' W 122°45'0 0.0
2015-Jun-25 19:33N 45°39' W 122°45'0 0.0
2015-Jun-25 18:34N 45°39' W 122°45'4 4.2
2015-Jun-25 17:34N 45°43' W 122°46'9 9.4
2015-Jun-25 16:34N 45°53' W 122°48'7 6.6
2015-Jun-25 15:33N 45°59' W 122°50'0 0.1
2015-Jun-25 14:33N 45°59' W 122°50'1 0.7
2015-Jun-25 13:33N 45°60' W 122°51'1 0.3
2015-Jun-25 11:33N 45°59' W 122°50'6 5.9
2015-Jun-25 10:34N 45°53' W 122°48'1211.5
2015-Jun-25 09:34N 45°42' W 122°46'4 3.5
2015-Jun-25 08:34N 45°39' W 122°45'3 3.5
2015-Jun-25 07:33N 45°35' W 122°46'2 2.2
2015-Jun-25 06:33N 45°34' W 122°43'0 0.2
2015-Jun-25 05:33N 45°34' W 122°44'0 0.0
2015-Jun-25 04:33N 45°34' W 122°44'0 0.4
2015-Jun-25 03:34N 45°34' W 122°44'0 0.0
2015-Jun-25 02:34N 45°34' W 122°44'6 6.2
2015-Jun-25 01:33N 45°40' W 122°46'10 9.8
2015-Jun-25 00:34N 45°49' W 122°48'9 9.1
2015-Jun-24 23:34N 45°58' W 122°50'8 8.4
2015-Jun-24 22:34N 46°05' W 122°56'0 0.0
2015-Jun-24 21:33N 46°05' W 122°56'0 0.0
2015-Jun-24 20:33N 46°05' W 122°56'0 0.0
2015-Jun-24 19:33N 46°05' W 122°56'0 0.0
2015-Jun-24 18:33N 46°05' W 122°56'0 0.0
2015-Jun-24 17:33N 46°05' W 122°56'0 0.0
2015-Jun-24 16:33N 46°05' W 122°56'0 0.0
2015-Jun-24 15:34N 46°05' W 122°56'0 0.0
2015-Jun-24 14:33N 46°05' W 122°56'1 0.6
2015-Jun-24 13:34N 46°06' W 122°56'1 0.6
2015-Jun-24 12:33N 46°05' W 122°56'0 0.0
2015-Jun-24 11:34N 46°05' W 122°56'0 0.0
2015-Jun-24 10:34N 46°05' W 122°56'0 0.0
2015-Jun-24 09:33N 46°05' W 122°56'0 0.0
2015-Jun-24 08:33N 46°05' W 122°56'0 0.0
2015-Jun-24 07:33N 46°05' W 122°56'0 0.0
2015-Jun-24 06:33N 46°05' W 122°56'0 0.0
2015-Jun-24 05:33N 46°05' W 122°56'0 0.0
2015-Jun-24 04:34N 46°05' W 122°56'0 0.0
2015-Jun-24 03:34N 46°05' W 122°56'0 0.0
2015-Jun-24 02:33N 46°05' W 122°56'2 2.3
2015-Jun-24 01:33N 46°04' W 122°53'2 2.5
2015-Jun-24 00:34N 46°02' W 122°53'0 0.1
2015-Jun-23 23:34N 46°02' W 122°53'0 0.0
2015-Jun-23 22:33N 46°02' W 122°53'0 0.0
2015-Jun-23 21:33N 46°02' W 122°53'0 0.0
2015-Jun-23 20:33N 46°02' W 122°53'1 0.9
2015-Jun-23 19:33N 46°02' W 122°53'0 1.0
2015-Jun-23 19:06N 46°02' W 122°53'29 1.2
2015-Jun-22 19:34N 45°34' W 122°44'0 0.0
2015-Jun-22 18:34N 45°34' W 122°44'0 0.0
2015-Jun-22 17:34N 45°34' W 122°44'0 0.0
2015-Jun-22 16:34N 45°34' W 122°44'0 0.2
2015-Jun-22 15:34N 45°34' W 122°44'0 0.2
2015-Jun-22 14:34N 45°34' W 122°44'3 2.9
2015-Jun-22 13:34N 45°32' W 122°41'4 4.3
2015-Jun-22 12:34N 45°35' W 122°45'4 4.0
2015-Jun-22 11:34N 45°39' W 122°45'1 0.5
2015-Jun-22 10:34N 45°39' W 122°45'0 0.0
2015-Jun-22 09:33N 45°39' W 122°45'0 0.0
2015-Jun-22 08:33N 45°39' W 122°45'0 0.0
2015-Jun-22 07:34N 45°39' W 122°45'0 0.0
2015-Jun-22 06:33N 45°39' W 122°45'0 0.0
2015-Jun-22 05:33N 45°39' W 122°45'0 0.0
2015-Jun-22 04:34N 45°39' W 122°45'0 0.2
2015-Jun-22 03:34N 45°38' W 122°45'3 2.5
2015-Jun-22 02:33N 45°41' W 122°46'8 8.3
2015-Jun-22 01:33N 45°49' W 122°48'8 7.9
2015-Jun-22 00:33N 45°57' W 122°48'8 7.6
2015-Jun-21 23:33N 46°04' W 122°53'3 2.6
2015-Jun-21 22:34N 46°05' W 122°56'0 0.3
2015-Jun-21 21:34N 46°06' W 122°56'1 1.2
2015-Jun-21 20:34N 46°06' W 122°58'2 1.8
2015-Jun-21 19:34N 46°05' W 122°55'0 0.0
2015-Jun-21 18:33N 46°05' W 122°55'0 0.0
2015-Jun-21 17:33N 46°05' W 122°55'2 2.1
2015-Jun-21 16:33N 46°04' W 122°53'1110.9
2015-Jun-21 15:34N 45°54' W 122°48'1010.3
2015-Jun-21 14:34N 45°43' W 122°46'6 6.1
2015-Jun-21 13:33N 45°38' W 122°42'1 1.3
2015-Jun-21 12:34N 45°38' W 122°44'1 1.1
2015-Jun-21 11:33N 45°38' W 122°42'2 1.8
2015-Jun-21 10:33N 45°39' W 122°45'0 0.0
2015-Jun-21 09:33N 45°39' W 122°45'0 0.0
2015-Jun-21 08:34N 45°39' W 122°45'0 0.0
2015-Jun-21 07:33N 45°39' W 122°45'1 1.4
2015-Jun-21 06:33N 45°38' W 122°47'1 1.5
2015-Jun-21 05:34N 45°39' W 122°45'0 0.0
2015-Jun-21 04:34N 45°39' W 122°45'1 1.0
2015-Jun-21 03:33N 45°39' W 122°45'9 9.4
2015-Jun-21 02:33N 45°48' W 122°47'1010.3
2015-Jun-21 01:33N 45°58' W 122°49'8 8.1
2015-Jun-21 00:33N 46°05' W 122°55'7 6.9
2015-Jun-20 23:34N 45°59' W 122°50'2 1.5
2015-Jun-20 22:33N 46°00' W 122°51'6 5.8
2015-Jun-20 21:33N 46°05' W 122°55'2 2.4
2015-Jun-20 20:33N 46°07' W 122°58'1 1.5
2015-Jun-20 19:33N 46°06' W 122°56'0 0.0
2015-Jun-20 18:34N 46°06' W 122°56'0 0.0
2015-Jun-20 17:34N 46°06' W 122°56'0 0.0
2015-Jun-20 16:34N 46°06' W 122°56'0 0.0
2015-Jun-20 15:34N 46°06' W 122°56'0 0.0
2015-Jun-20 14:33N 46°06' W 122°56'0 0.0
2015-Jun-20 13:33N 46°06' W 122°56'0 0.0
2015-Jun-20 12:33N 46°06' W 122°56'0 0.0
2015-Jun-20 11:33N 46°06' W 122°56'0 0.0
2015-Jun-20 10:33N 46°06' W 122°56'0 0.0
2015-Jun-20 09:33N 46°06' W 122°56'0 0.0
2015-Jun-20 08:34N 46°06' W 122°56'0 0.0
2015-Jun-20 07:33N 46°06' W 122°56'0 0.3
2015-Jun-20 06:34N 46°06' W 122°57'0 0.3
2015-Jun-20 05:33N 46°06' W 122°56'0 0.0
2015-Jun-20 04:33N 46°06' W 122°56'0 0.0
2015-Jun-20 03:33N 46°06' W 122°56'0 0.0
2015-Jun-20 02:34N 46°06' W 122°56'0 0.0
2015-Jun-20 01:33N 46°06' W 122°56'0 0.0
2015-Jun-20 00:33N 46°06' W 122°56'1 0.6
2015-Jun-19 23:33N 46°06' W 122°57'0 0.3
2015-Jun-19 22:33N 46°06' W 122°58'0 0.1
2015-Jun-19 21:34N 46°07' W 122°58'0 0.0
2015-Jun-19 20:33N 46°06' W 122°58'2 1.6
2015-Jun-19 19:34N 46°05' W 122°56'0 0.0
2015-Jun-19 18:33N 46°05' W 122°56'0 0.0
2015-Jun-19 17:34N 46°05' W 122°56'0 0.0
2015-Jun-19 16:33N 46°05' W 122°56'0 0.2
2015-Jun-19 15:34N 46°05' W 122°56'1 0.8
2015-Jun-19 14:34N 46°06' W 122°56'0 0.2
2015-Jun-19 13:34N 46°06' W 122°56'1 1.0
2015-Jun-19 12:33N 46°06' W 122°58'0 0.0
2015-Jun-19 11:34N 46°06' W 122°58'0 0.0
2015-Jun-19 10:34N 46°06' W 122°58'0 0.0
2015-Jun-19 09:33N 46°06' W 122°58'1 0.7
2015-Jun-19 08:34N 46°06' W 122°57'1 0.8
2015-Jun-19 07:33N 46°05' W 122°56'0 0.0
2015-Jun-19 06:33N 46°05' W 122°56'0 0.0
2015-Jun-19 05:33N 46°05' W 122°56'0 0.0
2015-Jun-19 04:34N 46°05' W 122°56'0 0.0
2015-Jun-19 03:34N 46°05' W 122°56'7 7.4
2015-Jun-19 02:33N 45°59' W 122°50'0 0.3
2015-Jun-19 01:33N 45°59' W 122°50'0 0.3
2015-Jun-19 00:34N 45°59' W 122°50'0 0.0
2015-Jun-18 23:33N 45°59' W 122°50'0 0.0
2015-Jun-18 22:33N 45°59' W 122°50'0 0.0
2015-Jun-18 21:33N 45°59' W 122°50'0 0.0
2015-Jun-18 20:34N 45°59' W 122°50'0 0.0
2015-Jun-18 19:33N 45°59' W 122°50'0 0.0
2015-Jun-18 18:33N 45°59' W 122°50'0 0.1
2015-Jun-18 17:33N 45°59' W 122°50'0 0.0
2015-Jun-18 16:33N 45°59' W 122°50'0 0.0
2015-Jun-18 15:33N 45°59' W 122°50'3 2.6
2015-Jun-18 14:33N 46°01' W 122°52'5 4.8
2015-Jun-18 13:33N 46°05' W 122°56'1 0.5
2015-Jun-18 12:34N 46°06' W 122°56'1 0.9
2015-Jun-18 11:33N 46°05' W 122°55'0 0.1
2015-Jun-18 10:33N 46°05' W 122°55'0 0.0
2015-Jun-18 09:34N 46°05' W 122°55'0 0.0
2015-Jun-18 08:33N 46°05' W 122°55'0 0.0
2015-Jun-18 07:33N 46°05' W 122°55'0 0.0
2015-Jun-18 06:34N 46°05' W 122°55'0 0.0
2015-Jun-18 05:34N 46°05' W 122°55'0 0.0
2015-Jun-18 04:33N 46°05' W 122°55'0 0.0
2015-Jun-18 03:33N 46°05' W 122°55'0 0.0
2015-Jun-18 02:33N 46°05' W 122°55'0 0.0
2015-Jun-18 01:33N 46°05' W 122°55'1 1.0
2015-Jun-18 00:33N 46°06' W 122°56'0 0.0
2015-Jun-17 23:33N 46°06' W 122°56'0 0.2
2015-Jun-17 22:33N 46°06' W 122°56'0 0.1
2015-Jun-17 21:33N 46°06' W 122°56'0 0.2
2015-Jun-17 20:33N 46°06' W 122°56'1 0.7
2015-Jun-17 19:33N 46°05' W 122°56'0 0.0
2015-Jun-17 18:34N 46°05' W 122°56'0 0.0
2015-Jun-17 17:34N 46°05' W 122°56'  

Dump ship's entire track history